Time;durP1;ratioP1;P1;durP2;ratioP2;P2;SDS_P1;SDS_P2;PMS_P1;PMS_P2;Temp;Humidity;BMP_temperature;BMP_pressure;BME280_temperature;BME280_humidity;BME280_pressure;Samples;Min_cycle;Max_cycle;Signal;HPM_P1;HPM_P2
2023/10/15 00:02:25;;;;;;;4.40;2.27;;;9.40;99.90;;;;;;4940457;29;20451;-78
2023/10/15 00:05:01;;;;;;;3.50;1.90;;;9.40;99.90;;;;;;4941479;29;20458;-78
2023/10/15 00:07:36;;;;;;;3.90;2.03;;;9.40;99.90;;;;;;4944957;29;20486;-81
2023/10/15 00:10:15;;;;;;;2.83;1.83;;;9.40;99.90;;;;;;4944324;29;20542;-79
2023/10/15 00:12:50;;;;;;;3.80;2.03;;;9.40;99.90;;;;;;4943575;29;20475;-79
2023/10/15 00:15:27;;;;;;;3.30;1.77;;;9.40;99.90;;;;;;4943271;29;20450;-81
2023/10/15 00:18:10;;;;;;;5.23;2.20;;;9.40;99.90;;;;;;4941521;29;20553;-81
2023/10/15 00:20:47;;;;;;;6.23;2.20;;;9.60;99.90;;;;;;4941794;29;20465;-79
2023/10/15 00:23:20;;;;;;;3.03;1.67;;;9.40;99.90;;;;;;4939501;29;20481;-80
2023/10/15 00:25:51;;;;;;;4.23;1.70;;;9.40;99.90;;;;;;4937007;29;20469;-78
2023/10/15 00:28:29;;;;;;;2.87;1.63;;;9.50;99.90;;;;;;4936364;29;20459;-80
2023/10/15 00:31:13;;;;;;;7.67;2.40;;;9.40;99.90;;;;;;4937169;29;20760;-77
2023/10/15 00:33:47;;;;;;;6.60;2.47;;;9.40;99.90;;;;;;4936316;29;20507;-80
2023/10/15 00:36:27;;;;;;;5.43;2.00;;;9.40;99.90;;;;;;4935320;29;20499;-80
2023/10/15 00:39:21;;;;;;;4.00;1.87;;;9.40;99.90;;;;;;4935515;29;20463;-79
2023/10/15 00:42:07;;;;;;;4.00;2.30;;;9.40;99.90;;;;;;4934856;29;20458;-82
2023/10/15 00:44:44;;;;;;;4.13;2.17;;;9.50;99.90;;;;;;4935148;29;20917;-83
2023/10/15 00:47:19;;;;;;;3.60;2.87;;;9.40;99.90;;;;;;4935352;29;20503;-79
2023/10/15 00:49:55;;;;;;;8.63;2.93;;;9.40;99.90;;;;;;4935257;29;20490;-82
2023/10/15 00:52:30;;;;;;;4.47;2.60;;;9.40;99.90;;;;;;4935032;29;20573;-82
2023/10/15 00:55:05;;;;;;;3.77;2.10;;;9.40;99.90;;;;;;4935249;29;20454;-80
2023/10/15 00:57:43;;;;;;;5.00;2.67;;;9.40;99.90;;;;;;4935041;29;20498;-78
2023/10/15 01:03:13;;;;;;;7.63;2.77;;;9.40;99.90;;;;;;4935013;29;20406;-79
2023/10/15 01:05:53;;;;;;;3.00;2.43;;;9.40;99.90;;;;;;4934955;29;20868;-78
2023/10/15 01:08:31;;;;;;;5.03;2.97;;;9.40;99.90;;;;;;4934422;29;20435;-78
2023/10/15 01:11:15;;;;;;;2.97;2.67;;;9.40;99.90;;;;;;4935929;29;20461;-81
2023/10/15 01:13:51;;;;;;;5.23;2.20;;;9.40;99.90;;;;;;4938235;29;20483;-79
2023/10/15 01:16:35;;;;;;;5.20;2.57;;;9.50;99.90;;;;;;4937951;29;20534;-79
2023/10/15 01:19:19;;;;;;;3.73;2.20;;;9.50;99.90;;;;;;4938483;29;20607;-79
2023/10/15 01:22:02;;;;;;;6.20;3.20;;;9.50;99.90;;;;;;4938365;29;20510;-79
2023/10/15 01:24:41;;;;;;;4.33;2.43;;;9.50;99.90;;;;;;4938198;29;20469;-78
2023/10/15 01:27:32;;;;;;;5.10;3.00;;;9.60;99.90;;;;;;4938416;29;20581;-79
2023/10/15 01:30:17;;;;;;;8.37;3.23;;;9.50;99.90;;;;;;4938194;29;20462;-81
2023/10/15 01:32:54;;;;;;;5.57;2.50;;;9.50;99.90;;;;;;4938466;29;20474;-81
2023/10/15 01:35:29;;;;;;;2.97;2.33;;;9.50;99.90;;;;;;4938883;29;20940;-80
2023/10/15 01:38:32;;;;;;;6.57;2.70;;;9.50;99.90;;;;;;4938906;29;20568;-81
2023/10/15 01:41:13;;;;;;;3.97;2.40;;;9.30;99.90;;;;;;4940582;29;20506;-79
2023/10/15 01:43:49;;;;;;;3.63;2.70;;;9.50;99.90;;;;;;4937695;29;20549;-80
2023/10/15 01:46:40;;;;;;;5.70;3.50;;;9.50;99.90;;;;;;4937732;29;20480;-79
2023/10/15 01:49:09;;;;;;;3.73;2.80;;;9.30;99.90;;;;;;4937842;29;20458;-79
2023/10/15 01:52:05;;;;;;;4.50;2.03;;;9.50;99.90;;;;;;4937630;29;20459;-78
2023/10/15 01:54:38;;;;;;;4.83;2.90;;;9.50;99.90;;;;;;4937708;29;20492;-79
2023/10/15 01:57:15;;;;;;;4.57;2.37;;;9.50;99.90;;;;;;4937462;29;20497;-80
2023/10/15 02:00:05;;;;;;;2.93;2.60;;;9.60;99.90;;;;;;4937770;29;20538;-81
2023/10/15 02:02:35;;;;;;;3.03;2.00;;;9.60;99.90;;;;;;4937859;29;20510;-79
2023/10/15 02:05:16;;;;;;;3.60;2.13;;;9.60;99.90;;;;;;4938219;29;20948;-78
2023/10/15 02:07:53;;;;;;;5.53;2.77;;;9.60;99.90;;;;;;4937948;29;20835;-78
2023/10/15 02:10:27;;;;;;;7.83;2.57;;;9.70;99.90;;;;;;4937506;29;20495;-81
2023/10/15 02:13:04;;;;;;;5.60;2.40;;;9.70;99.90;;;;;;4937506;29;20506;-79
2023/10/15 02:15:39;;;;;;;3.47;2.60;;;9.70;99.90;;;;;;4937878;29;20514;-79
2023/10/15 02:18:14;;;;;;;2.23;2.00;;;9.70;99.90;;;;;;4937455;29;20453;-81
2023/10/15 02:21:00;;;;;;;1.97;1.87;;;9.70;99.90;;;;;;4937136;29;21012;-80
2023/10/15 02:23:48;;;;;;;5.07;2.53;;;9.70;99.90;;;;;;4936941;29;20451;-79
2023/10/15 02:26:29;;;;;;;2.50;1.70;;;9.70;99.90;;;;;;4929086;29;20460;-78
2023/10/15 02:29:06;;;;;;;3.67;1.90;;;9.80;99.90;;;;;;4918799;29;20846;-79
2023/10/15 02:31:41;;;;;;;5.70;2.83;;;9.80;99.90;;;;;;4918802;29;20474;-79
2023/10/15 02:34:14;;;;;;;2.43;2.23;;;9.80;99.90;;;;;;4918860;29;20570;-78
2023/10/15 02:36:48;;;;;;;2.30;2.10;;;9.80;99.90;;;;;;4919406;29;20479;-79
2023/10/15 02:39:22;;;;;;;4.33;2.70;;;9.80;99.90;;;;;;4922578;29;20424;-80
2023/10/15 02:41:53;;;;;;;4.67;2.23;;;9.80;99.90;;;;;;4923656;29;20456;-80
2023/10/15 02:44:25;;;;;;;2.43;2.00;;;9.80;99.90;;;;;;4924316;29;20456;-78
2023/10/15 02:47:06;;;;;;;2.23;1.90;;;9.80;99.90;;;;;;4924912;29;20479;-79
2023/10/15 02:52:54;;;;;;;3.90;2.47;;;9.80;99.90;;;;;;4923055;29;20456;-79
2023/10/15 02:55:35;;;;;;;5.93;2.33;;;9.60;99.90;;;;;;4923085;29;20452;-80
2023/10/15 02:58:27;;;;;;;4.60;2.20;;;9.60;99.90;;;;;;4918759;29;20464;-78
2023/10/15 03:01:06;;;;;;;5.67;2.53;;;9.90;99.90;;;;;;4918258;29;20459;-79
2023/10/15 03:03:54;;;;;;;2.80;2.23;;;9.90;99.90;;;;;;4929110;29;20530;-80
2023/10/15 03:06:31;;;;;;;4.43;2.00;;;9.90;99.90;;;;;;4937384;29;20499;-80
2023/10/15 03:09:11;;;;;;;7.10;2.27;;;9.90;99.90;;;;;;4937627;29;20455;-80
2023/10/15 03:11:50;;;;;;;3.30;2.10;;;9.90;99.90;;;;;;4936953;29;20518;-79
2023/10/15 03:14:25;;;;;;;2.00;1.80;;;9.90;99.90;;;;;;4936636;29;20488;-80
2023/10/15 03:17:23;;;;;;;3.50;2.03;;;9.70;99.90;;;;;;4936072;29;20479;-81
2023/10/15 03:20:11;;;;;;;2.77;2.43;;;10.00;99.90;;;;;;4936516;29;20483;-79
2023/10/15 03:22:51;;;;;;;5.23;3.10;;;10.00;99.90;;;;;;4936755;29;20482;-79
2023/10/15 03:25:47;;;;;;;4.97;2.27;;;9.90;99.90;;;;;;4936011;29;20462;-79
2023/10/15 03:28:23;;;;;;;7.50;2.47;;;9.90;99.90;;;;;;4936131;29;20479;-78
2023/10/15 03:30:56;;;;;;;2.67;2.40;;;9.90;99.90;;;;;;4935858;29;20517;-78
2023/10/15 03:33:36;;;;;;;4.40;3.30;;;9.90;99.90;;;;;;4935518;29;20534;-79
2023/10/15 03:36:12;;;;;;;5.50;2.73;;;9.90;99.90;;;;;;4936341;29;20537;-78
2023/10/15 03:38:48;;;;;;;4.10;2.20;;;9.90;99.90;;;;;;4936308;29;20537;-79
2023/10/15 03:42:09;;;;;;;5.97;2.07;;;9.90;99.90;;;;;;4936317;29;20451;-80
2023/10/15 03:45:01;;;;;;;2.67;2.23;;;9.80;99.90;;;;;;4933507;29;20450;-79
2023/10/15 03:48:21;;;;;;;4.63;2.33;;;9.80;99.90;;;;;;4935937;29;20478;-80
2023/10/15 03:50:58;;;;;;;3.77;1.90;;;9.80;99.90;;;;;;4936185;29;20479;-82
2023/10/15 03:53:35;;;;;;;2.53;2.17;;;9.80;99.90;;;;;;4935376;29;20534;-78
2023/10/15 03:56:08;;;;;;;6.13;2.57;;;9.80;99.90;;;;;;4935037;29;20567;-79
2023/10/15 03:58:39;;;;;;;3.83;2.00;;;9.80;99.90;;;;;;4935443;29;20478;-79
2023/10/15 04:01:15;;;;;;;3.87;2.20;;;9.80;99.90;;;;;;4935125;29;20458;-79
2023/10/15 04:03:50;;;;;;;3.60;1.70;;;9.80;99.90;;;;;;4935004;29;20451;-81
2023/10/15 04:06:21;;;;;;;3.23;2.00;;;9.80;99.90;;;;;;4935058;29;20470;-80
2023/10/15 04:09:09;;;;;;;5.60;1.70;;;9.80;99.90;;;;;;4935067;29;20459;-78
2023/10/15 04:11:47;;;;;;;4.67;1.80;;;9.80;99.90;;;;;;4935053;29;20506;-79
2023/10/15 04:14:34;;;;;;;2.33;1.77;;;9.70;99.90;;;;;;4934877;29;20470;-78
2023/10/15 04:17:15;;;;;;;2.53;1.73;;;9.90;99.90;;;;;;4934833;29;20482;-78
2023/10/15 04:19:47;;;;;;;3.53;2.03;;;9.70;99.90;;;;;;4934729;29;20435;-79
2023/10/15 04:22:17;;;;;;;4.33;2.00;;;9.40;99.90;;;;;;4935159;29;20542;-79
2023/10/15 04:24:50;;;;;;;3.40;1.73;;;9.70;99.90;;;;;;4935346;29;20455;-79
2023/10/15 04:27:27;;;;;;;4.80;2.00;;;9.70;99.90;;;;;;4935663;29;20487;-79
2023/10/15 04:30:11;;;;;;;2.43;2.20;;;9.60;99.90;;;;;;4934898;29;20870;-80
2023/10/15 04:32:50;;;;;;;4.30;1.97;;;9.60;99.90;;;;;;4935481;29;20498;-79
2023/10/15 04:35:25;;;;;;;2.83;1.87;;;9.60;99.90;;;;;;4935318;29;20533;-78
2023/10/15 04:37:58;;;;;;;2.97;2.10;;;9.60;99.90;;;;;;4935094;29;20571;-80
2023/10/15 04:40:39;;;;;;;2.90;2.07;;;9.60;99.90;;;;;;4935492;29;20551;-79
2023/10/15 04:43:13;;;;;;;2.27;1.43;;;9.70;99.90;;;;;;4935585;29;20455;-79
2023/10/15 04:45:49;;;;;;;6.83;2.53;;;9.70;99.90;;;;;;4938022;29;20450;-79
2023/10/15 04:48:30;;;;;;;4.27;2.30;;;9.70;99.90;;;;;;4939452;29;20541;-78
2023/10/15 04:51:04;;;;;;;5.30;1.83;;;9.80;99.90;;;;;;4938925;29;20557;-78
2023/10/15 04:53:55;;;;;;;3.63;2.27;;;9.80;99.90;;;;;;4938743;29;20602;-80
2023/10/15 04:59:24;;;;;;;3.00;2.20;;;9.90;99.90;;;;;;4938722;29;20442;-80
2023/10/15 05:02:10;;;;;;;4.53;2.10;;;9.90;99.90;;;;;;4939808;29;20457;-79
2023/10/15 05:04:52;;;;;;;3.33;2.70;;;9.90;99.90;;;;;;4940618;29;20546;-78
2023/10/15 05:07:30;;;;;;;4.20;2.40;;;9.90;99.90;;;;;;4939529;29;20455;-79
2023/10/15 05:10:09;;;;;;;4.53;2.23;;;9.80;99.90;;;;;;4940170;29;20478;-80
2023/10/15 05:12:53;;;;;;;3.80;2.03;;;9.70;99.90;;;;;;4941110;29;20562;-80
2023/10/15 05:15:38;;;;;;;3.73;2.47;;;9.80;99.90;;;;;;4942014;29;20504;-78
2023/10/15 05:18:24;;;;;;;5.00;2.40;;;10.00;99.90;;;;;;4942783;29;20522;-78
2023/10/15 05:21:10;;;;;;;4.90;1.97;;;9.70;99.90;;;;;;4944603;29;20531;-78
2023/10/15 05:23:51;;;;;;;5.13;2.17;;;9.70;99.90;;;;;;4946675;29;20454;-78
2023/10/15 05:26:31;;;;;;;4.47;2.30;;;9.70;99.90;;;;;;4941133;29;20843;-80
2023/10/15 05:29:13;;;;;;;3.00;2.20;;;9.70;99.90;;;;;;4939805;29;20443;-80
2023/10/15 05:31:55;;;;;;;4.40;2.67;;;9.70;99.90;;;;;;4938783;29;20853;-79
2023/10/15 05:34:29;;;;;;;3.43;2.23;;;9.70;99.90;;;;;;4937914;29;20474;-79
2023/10/15 05:37:03;;;;;;;4.40;2.47;;;9.60;99.90;;;;;;4938184;29;20522;-78
2023/10/15 05:39:51;;;;;;;3.77;2.67;;;9.70;99.90;;;;;;4938474;29;20458;-77
2023/10/15 05:45:23;;;;;;;4.50;2.57;;;9.70;99.90;;;;;;4950556;29;20431;-79
2023/10/15 05:48:01;;;;;;;7.20;2.77;;;9.30;99.90;;;;;;4950262;29;20469;-80
2023/10/15 05:50:47;;;;;;;5.63;2.60;;;9.70;99.90;;;;;;4949632;29;20943;-79
2023/10/15 05:56:35;;;;;;;3.40;2.00;;;9.60;99.90;;;;;;4941830;29;20563;-79
2023/10/15 05:59:11;;;;;;;3.07;2.10;;;9.40;99.90;;;;;;4950793;29;20467;-80
2023/10/15 06:02:14;;;;;;;6.53;2.63;;;9.70;99.90;;;;;;4954570;29;20434;-79
2023/10/15 06:05:00;;;;;;;3.90;2.27;;;9.60;99.90;;;;;;4936616;29;20458;-81
2023/10/15 06:07:47;;;;;;;5.10;3.20;;;9.60;99.90;;;;;;4937895;29;20467;-77
2023/10/15 06:10:15;;;;;;;4.40;2.10;;;9.60;99.90;;;;;;4935602;29;20483;-82
2023/10/15 06:13:01;;;;;;;3.03;2.53;;;9.70;99.90;;;;;;4933991;29;20481;-80
2023/10/15 06:15:50;;;;;;;6.83;2.20;;;9.70;99.90;;;;;;4931243;29;20502;-79
2023/10/15 06:18:47;;;;;;;6.63;2.50;;;9.70;99.90;;;;;;4932439;29;20459;-81
2023/10/15 06:21:35;;;;;;;3.37;2.03;;;9.70;99.90;;;;;;4921182;29;20800;-79
2023/10/15 06:24:10;;;;;;;3.43;2.23;;;9.60;99.90;;;;;;4920925;29;20479;-79
2023/10/15 06:26:38;;;;;;;3.37;2.67;;;9.60;99.90;;;;;;4938375;29;20514;-80
2023/10/15 06:29:07;;;;;;;2.80;2.60;;;9.60;99.90;;;;;;4939098;29;20455;-79
2023/10/15 06:31:39;;;;;;;4.23;2.70;;;9.60;99.90;;;;;;4941916;29;20486;-80
2023/10/15 06:34:15;;;;;;;3.60;3.30;;;9.60;99.90;;;;;;4940113;29;20478;-79
2023/10/15 06:36:43;;;;;;;3.27;2.50;;;9.60;99.90;;;;;;4937961;29;20483;-80
2023/10/15 06:39:21;;;;;;;4.67;2.97;;;9.50;99.90;;;;;;4939723;29;20542;-79
2023/10/15 06:41:52;;;;;;;5.23;2.50;;;9.50;99.90;;;;;;4942390;29;20455;-78
2023/10/15 06:44:23;;;;;;;8.63;2.67;;;9.50;99.90;;;;;;4944717;29;20811;-78
2023/10/15 06:47:05;;;;;;;3.00;2.50;;;9.30;99.90;;;;;;4946612;29;21089;-80
2023/10/15 06:49:40;;;;;;;6.50;3.57;;;9.50;99.90;;;;;;4942195;29;20451;-81
2023/10/15 06:52:13;;;;;;;3.80;2.63;;;9.50;99.90;;;;;;4942604;29;20490;-80
2023/10/15 06:54:48;;;;;;;7.03;3.60;;;9.80;99.90;;;;;;4938254;29;21078;-78
2023/10/15 06:57:20;;;;;;;3.87;2.90;;;9.40;99.90;;;;;;4933986;29;20471;-80
2023/10/15 06:59:50;;;;;;;5.10;2.57;;;9.90;99.90;;;;;;4923826;29;20460;-78
2023/10/15 07:02:21;;;;;;;4.47;3.00;;;9.70;99.90;;;;;;4921814;29;20456;-80
2023/10/15 07:04:55;;;;;;;3.53;2.60;;;9.70;99.90;;;;;;4943001;29;20451;-82
2023/10/15 07:07:24;;;;;;;5.37;2.90;;;9.80;99.90;;;;;;4946817;29;20597;-79
2023/10/15 07:09:56;;;;;;;4.47;2.87;;;9.90;99.90;;;;;;4948332;29;20924;-78
2023/10/15 07:12:27;;;;;;;3.83;2.47;;;9.90;99.90;;;;;;4944516;29;20501;-80
2023/10/15 07:14:57;;;;;;;5.80;2.70;;;9.90;99.90;;;;;;4942190;29;20597;-81
2023/10/15 07:17:25;;;;;;;3.10;2.80;;;10.00;99.90;;;;;;4938909;29;20988;-81
2023/10/15 07:19:58;;;;;;;4.20;3.50;;;10.00;99.90;;;;;;4946434;29;20948;-81
2023/10/15 07:22:30;;;;;;;7.23;3.10;;;10.10;99.90;;;;;;4937936;29;20461;-78
2023/10/15 07:25:01;;;;;;;4.87;2.60;;;10.30;99.90;;;;;;4935900;29;20467;-79
2023/10/15 07:27:48;;;;;;;3.23;2.87;;;10.40;99.90;;;;;;4945297;29;20451;-80
2023/10/15 07:30:19;;;;;;;5.13;3.33;;;10.60;99.90;;;;;;4941171;29;20448;-78
2023/10/15 07:32:57;;;;;;;3.90;2.70;;;11.10;99.90;;;;;;4944102;29;20473;-80
2023/10/15 07:35:59;;;;;;;5.60;2.50;;;11.20;99.90;;;;;;4922579;29;20480;-78
2023/10/15 07:38:37;;;;;;;3.40;2.97;;;11.50;99.90;;;;;;4940062;29;20443;-80
2023/10/15 07:41:11;;;;;;;7.00;3.50;;;11.50;99.90;;;;;;4924871;29;20459;-78
2023/10/15 07:43:42;;;;;;;4.27;2.60;;;11.30;99.90;;;;;;4934993;29;20455;-78
2023/10/15 07:46:24;;;;;;;6.00;3.00;;;11.40;99.90;;;;;;4943172;29;20475;-80
2023/10/15 07:48:53;;;;;;;6.63;3.67;;;11.80;99.90;;;;;;4944263;29;20454;-78
2023/10/15 08:02:37;;;;;;;4.60;2.70;;;12.00;99.90;;;;;;4726281;30;20502;-79
2023/10/15 08:05:14;;;;;;;3.93;2.53;;;12.20;99.90;;;;;;4794515;29;20474;-80
2023/10/15 08:08:04;;;;;;;3.47;1.90;;;12.60;99.90;;;;;;4895850;29;20472;-80
2023/10/15 08:10:55;;;;;;;3.70;2.20;;;13.00;99.90;;;;;;4928970;29;20475;-81
2023/10/15 08:13:36;;;;;;;4.37;2.27;;;13.20;99.90;;;;;;4940060;29;20530;-79
2023/10/15 08:16:51;;;;;;;6.00;3.07;;;13.10;99.90;;;;;;4934639;29;20495;-81
2023/10/15 08:19:45;;;;;;;3.13;2.07;;;13.00;99.90;;;;;;4918567;29;20531;-78
2023/10/15 08:22:19;;;;;;;4.03;2.27;;;12.70;99.90;;;;;;4917829;29;20432;-77
2023/10/15 08:24:57;;;;;;;2.80;1.90;;;12.70;99.90;;;;;;4917366;29;21004;-80
2023/10/15 08:27:36;;;;;;;4.70;2.70;;;12.80;99.90;;;;;;4918866;29;20480;-78
2023/10/15 08:30:12;;;;;;;3.07;1.80;;;12.90;99.90;;;;;;4941552;29;20455;-79
2023/10/15 08:32:44;;;;;;;4.90;2.17;;;13.10;99.90;;;;;;4928709;29;20522;-78
2023/10/15 08:35:18;;;;;;;4.80;2.10;;;13.50;99.90;;;;;;4944793;29;20522;-81
2023/10/15 08:37:50;;;;;;;5.90;2.20;;;13.10;99.90;;;;;;4947169;29;20478;-79
2023/10/15 08:40:19;;;;;;;2.43;2.00;;;12.70;99.90;;;;;;4946221;29;20462;-81
2023/10/15 08:43:06;;;;;;;5.13;2.43;;;12.50;99.90;;;;;;4946891;29;20455;-79
2023/10/15 08:45:51;;;;;;;2.27;1.87;;;12.50;99.90;;;;;;4944331;29;20498;-80
2023/10/15 08:48:30;;;;;;;3.77;1.70;;;12.60;99.90;;;;;;4940231;29;20462;-78
2023/10/15 08:53:58;;;;;;;4.87;2.23;;;12.50;99.90;;;;;;4942151;29;20466;-81
2023/10/15 08:56:43;;;;;;;3.40;1.90;;;12.30;99.90;;;;;;4940091;29;20490;-82
2023/10/15 08:59:12;;;;;;;3.87;2.10;;;12.50;99.90;;;;;;4943621;29;20482;-79
2023/10/15 09:01:44;;;;;;;4.03;1.80;;;12.00;99.90;;;;;;4941615;29;20459;-79
2023/10/15 09:04:13;;;;;;;3.47;2.20;;;12.60;99.90;;;;;;4943723;29;20447;-81
2023/10/15 09:06:55;;;;;;;4.60;2.17;;;13.20;99.90;;;;;;4938860;29;20467;-78
2023/10/15 09:09:40;;;;;;;9.30;2.20;;;13.20;99.90;;;;;;4943944;29;20881;-78
2023/10/15 09:12:19;;;;;;;5.27;1.70;;;12.90;99.90;;;;;;4938301;29;20450;-79
2023/10/15 09:15:16;;;;;;;5.90;2.13;;;12.70;99.90;;;;;;4940482;29;20463;-78
2023/10/15 09:17:49;;;;;;;3.30;2.20;;;12.40;99.90;;;;;;4938533;29;20534;-81
2023/10/15 09:20:33;;;;;;;6.20;3.40;;;12.40;99.90;;;;;;4941479;29;20455;-79
2023/10/15 09:23:03;;;;;;;3.10;2.57;;;12.40;99.90;;;;;;4943276;29;20461;-81
2023/10/15 09:25:43;;;;;;;7.77;2.43;;;12.40;99.90;;;;;;4942517;29;20551;-82
2023/10/15 09:28:22;;;;;;;6.10;2.00;;;12.40;99.90;;;;;;4939395;29;20939;-80
2023/10/15 09:31:10;;;;;;;2.60;2.30;;;12.40;99.90;;;;;;4939684;29;20558;-82
2023/10/15 09:34:03;;;;;;;4.63;2.67;;;12.20;99.90;;;;;;4943650;29;20486;-81
2023/10/15 09:36:58;;;;;;;4.60;2.60;;;12.40;99.90;;;;;;4946388;29;20489;-80
2023/10/15 09:39:38;;;;;;;2.73;1.90;;;12.00;99.90;;;;;;4943119;29;20458;-81
2023/10/15 09:42:31;;;;;;;7.20;2.53;;;12.20;99.90;;;;;;4946116;29;20490;-80
2023/10/15 09:45:05;;;;;;;2.50;2.30;;;12.40;99.90;;;;;;4947090;29;20458;-80
2023/10/15 09:47:54;;;;;;;4.53;2.73;;;12.10;99.90;;;;;;4941706;29;20490;-82
2023/10/15 09:50:42;;;;;;;;;;;;;;;;;;;;;
2023/10/15 09:53:16;;;;;;;4.20;2.70;;;11.90;99.90;;;;;;4941498;29;20478;-79
2023/10/15 09:55:46;;;;;;;3.70;2.20;;;12.60;99.90;;;;;;4946778;29;20505;-80
2023/10/15 09:58:22;;;;;;;3.40;1.90;;;12.40;99.90;;;;;;4950222;29;20448;-79
2023/10/15 10:01:08;;;;;;;4.07;1.90;;;12.90;99.90;;;;;;4945072;29;20443;-79
2023/10/15 10:07:36;;;;;;;3.43;1.70;;;13.30;99.90;;;;;;4941485;29;20459;-82
2023/10/15 10:10:44;;;;;;;2.50;1.57;;;13.40;99.90;;;;;;4933400;29;20457;-80
2023/10/15 10:14:00;;;;;;;4.57;1.80;;;13.30;99.90;;;;;;4942734;29;20465;-82
2023/10/15 10:16:41;;;;;;;2.63;2.00;;;13.00;99.90;;;;;;4938395;29;20534;-82
2023/10/15 10:19:24;;;;;;;3.00;1.30;;;13.10;99.90;;;;;;4940837;29;20459;-81
2023/10/15 10:22:05;;;;;;;2.30;1.40;;;12.70;99.90;;;;;;4942746;29;20473;-80
2023/10/15 10:25:07;;;;;;;2.90;1.40;;;13.50;99.90;;;;;;4949364;29;20451;-79
2023/10/15 10:27:48;;;;;;;4.47;1.57;;;12.80;99.90;;;;;;4943454;29;20486;-79
2023/10/15 10:30:30;;;;;;;1.97;1.50;;;12.70;99.90;;;;;;4943791;29;20459;-79
2023/10/15 10:33:28;;;;;;;1.70;1.23;;;12.90;99.90;;;;;;4941864;29;20455;-80
2023/10/15 10:36:17;;;;;;;2.20;1.80;;;13.10;99.90;;;;;;4948121;29;20494;-80
2023/10/15 10:38:45;;;;;;;9.07;2.60;;;13.30;99.90;;;;;;4947799;29;20451;-81
2023/10/15 10:41:15;;;;;;;2.33;2.13;;;13.80;99.90;;;;;;4950146;29;20822;-80
2023/10/15 10:43:44;;;;;;;5.17;2.20;;;13.90;99.90;;;;;;4947876;29;20921;-80
2023/10/15 10:46:23;;;;;;;1.97;1.47;;;14.30;99.90;;;;;;4948531;29;20505;-80
2023/10/15 10:49:05;;;;;;;4.73;1.83;;;14.30;99.90;;;;;;4943976;29;20431;-78
2023/10/15 10:51:35;;;;;;;3.47;1.20;;;14.20;99.90;;;;;;4942080;29;20455;-80
2023/10/15 10:54:25;;;;;;;2.30;1.50;;;14.10;99.90;;;;;;4941086;29;20446;-79
2023/10/15 10:57:15;;;;;;;4.07;1.70;;;13.30;99.90;;;;;;4943233;29;20514;-78
2023/10/15 10:59:56;;;;;;;3.40;1.50;;;13.30;99.90;;;;;;4946134;29;20455;-81
2023/10/15 11:02:31;;;;;;;2.93;1.30;;;13.20;99.90;;;;;;4946512;29;20459;-82
2023/10/15 11:05:06;;;;;;;5.80;1.80;;;12.80;99.90;;;;;;4946043;29;20451;-81
2023/10/15 11:07:40;;;;;;;3.23;1.97;;;12.60;99.90;;;;;;4946944;29;20505;-80
2023/10/15 11:10:13;;;;;;;2.67;1.87;;;12.50;99.90;;;;;;4947128;29;20450;-80
2023/10/15 11:12:42;;;;;;;4.33;1.70;;;12.60;99.90;;;;;;4948126;29;20451;-80
2023/10/15 11:15:14;;;;;;;1.50;1.40;;;12.80;99.90;;;;;;4944717;29;20964;-81
2023/10/15 11:17:59;;;;;;;2.00;1.40;;;12.60;99.90;;;;;;4943802;29;20481;-83
2023/10/15 11:20:33;;;;;;;1.03;0.93;;;12.60;99.90;;;;;;4945247;29;20455;-83
2023/10/15 11:23:01;;;;;;;1.63;1.30;;;12.50;99.90;;;;;;4947443;29;20463;-80
2023/10/15 11:25:29;;;;;;;2.03;1.23;;;12.50;99.90;;;;;;4954342;29;20463;-79
2023/10/15 11:27:58;;;;;;;1.53;1.30;;;12.30;99.90;;;;;;4954348;29;20479;-79
2023/10/15 11:30:26;;;;;;;1.90;1.47;;;12.20;99.90;;;;;;4952952;29;20507;-82
2023/10/15 11:33:07;;;;;;;1.43;1.33;;;12.40;99.90;;;;;;4946408;29;20454;-80
2023/10/15 11:35:37;;;;;;;4.83;1.10;;;12.70;99.90;;;;;;4946239;29;20486;-79
2023/10/15 11:38:14;;;;;;;2.27;1.30;;;12.90;99.90;;;;;;4946828;29;20534;-81
2023/10/15 11:40:45;;;;;;;1.67;1.57;;;13.20;99.90;;;;;;4949066;29;20415;-81
2023/10/15 11:43:17;;;;;;;1.67;1.30;;;12.90;99.90;;;;;;4946232;29;20532;-81
2023/10/15 11:45:50;;;;;;;3.23;1.50;;;13.60;99.90;;;;;;4950082;29;20455;-78
2023/10/15 11:48:22;;;;;;;2.10;1.70;;;13.90;99.90;;;;;;4942571;29;20450;-80
2023/10/15 11:50:50;;;;;;;2.53;1.37;;;13.80;99.90;;;;;;4937691;29;20458;-80
2023/10/15 11:53:17;;;;;;;3.20;1.43;;;13.60;99.90;;;;;;4939856;29;20956;-81
2023/10/15 11:55:52;;;;;;;2.13;1.50;;;13.70;99.90;;;;;;4940994;29;20471;-81
2023/10/15 11:58:23;;;;;;;3.13;1.60;;;13.60;99.90;;;;;;4944613;29;20474;-79
2023/10/15 12:00:52;;;;;;;3.43;2.10;;;14.10;99.90;;;;;;4943271;29;20435;-80
2023/10/15 12:03:22;;;;;;;3.10;1.67;;;14.30;99.90;;;;;;4941399;29;20794;-79
2023/10/15 12:05:51;;;;;;;5.60;1.50;;;13.90;99.90;;;;;;4943313;29;20835;-82
2023/10/15 12:08:21;;;;;;;4.37;2.00;;;13.80;99.90;;;;;;4947074;29;20447;-81
2023/10/15 12:10:49;;;;;;;2.70;1.70;;;13.60;99.90;;;;;;4947653;29;20454;-80
2023/10/15 12:13:16;;;;;;;3.00;1.60;;;13.30;99.90;;;;;;4945386;29;20451;-81
2023/10/15 12:15:51;;;;;;;1.53;1.43;;;13.10;99.90;;;;;;4944261;29;20523;-79
2023/10/15 12:18:19;;;;;;;2.70;2.00;;;12.80;99.90;;;;;;4944844;29;20454;-83
2023/10/15 12:20:51;;;;;;;3.13;1.87;;;12.50;99.90;;;;;;4946992;29;20459;-82
2023/10/15 12:23:20;;;;;;;9.80;1.73;;;12.90;99.90;;;;;;4947246;29;20435;-81
2023/10/15 12:25:49;;;;;;;4.20;1.47;;;13.20;99.90;;;;;;4946495;29;20466;-81
2023/10/15 12:28:27;;;;;;;2.63;1.80;;;13.60;99.90;;;;;;4946978;29;20505;-79
2023/10/15 12:30:55;;;;;;;2.33;1.93;;;13.80;99.90;;;;;;4945666;29;20472;-81
2023/10/15 12:33:25;;;;;;;2.30;1.60;;;13.80;99.90;;;;;;4945623;29;20483;-82
2023/10/15 12:36:07;;;;;;;2.67;1.63;;;13.70;99.90;;;;;;4942787;29;20506;-82
2023/10/15 12:38:34;;;;;;;2.83;1.50;;;13.90;99.90;;;;;;4947501;29;20498;-78
2023/10/15 12:41:06;;;;;;;3.20;1.47;;;13.60;99.90;;;;;;4950168;29;20431;-81
2023/10/15 12:43:37;;;;;;;1.50;1.40;;;13.40;99.90;;;;;;4946557;29;20455;-80
2023/10/15 12:46:07;;;;;;;3.30;1.43;;;13.40;99.90;;;;;;4947468;29;20474;-80
2023/10/15 12:48:35;;;;;;;2.20;1.80;;;13.60;99.90;;;;;;4949320;29;20447;-80
2023/10/15 12:51:10;;;;;;;1.97;1.33;;;13.30;99.90;;;;;;4946778;29;20454;-78
2023/10/15 12:53:40;;;;;;;1.47;1.37;;;13.00;99.90;;;;;;4945448;29;20455;-83
2023/10/15 12:56:10;;;;;;;2.63;1.37;;;13.00;99.90;;;;;;4944788;29;20494;-79
2023/10/15 12:58:39;;;;;;;1.50;1.40;;;12.80;99.90;;;;;;4946953;29;20461;-79
2023/10/15 13:01:11;;;;;;;1.97;1.50;;;12.60;99.90;;;;;;4947526;29;20436;-79
2023/10/15 13:03:38;;;;;;;2.70;1.80;;;12.70;99.90;;;;;;4951791;29;20530;-81
2023/10/15 13:06:11;;;;;;;1.80;1.70;;;13.10;99.90;;;;;;4951918;29;20535;-80
2023/10/15 13:08:55;;;;;;;2.17;1.37;;;13.60;99.90;;;;;;4953827;29;20440;-80
2023/10/15 13:11:26;;;;;;;1.23;1.17;;;13.70;99.90;;;;;;4954027;29;20459;-80
2023/10/15 13:14:04;;;;;;;3.00;1.57;;;13.80;99.90;;;;;;4950949;29;20527;-81
2023/10/15 13:16:35;;;;;;;1.83;1.30;;;13.60;99.90;;;;;;4952256;29;20497;-78
2023/10/15 13:19:05;;;;;;;3.23;1.10;;;13.90;99.90;;;;;;4952379;29;20478;-78
2023/10/15 13:21:37;;;;;;;3.40;1.13;;;13.50;99.90;;;;;;4950124;29;20447;-79
2023/10/15 13:24:06;;;;;;;1.10;1.00;;;13.30;99.90;;;;;;4946956;29;20453;-79
2023/10/15 13:26:42;;;;;;;2.23;1.40;;;13.10;99.90;;;;;;4948330;29;20983;-80
2023/10/15 13:29:09;;;;;;;1.20;1.20;;;13.40;99.90;;;;;;4948863;29;20461;-83
2023/10/15 13:31:42;;;;;;;1.63;1.13;;;13.40;99.90;;;;;;4948913;29;20459;-79
2023/10/15 13:34:22;;;;;;;1.83;1.43;;;13.70;99.90;;;;;;4949406;29;20451;-79
2023/10/15 13:39:48;;;;;;;2.10;1.40;;;14.00;99.90;;;;;;4869954;29;20442;-82
2023/10/15 13:42:15;;;;;;;1.80;1.60;;;14.80;99.90;;;;;;4937878;29;20611;-81
2023/10/15 13:44:46;;;;;;;1.80;1.50;;;14.70;99.90;;;;;;4947932;29;20451;-82
2023/10/15 13:47:27;;;;;;;2.10;1.20;;;14.50;99.90;;;;;;4948974;29;20480;-82
2023/10/15 13:50:00;;;;;;;1.63;1.30;;;14.70;99.90;;;;;;4946314;29;20986;-80
2023/10/15 13:52:33;;;;;;;2.67;1.20;;;14.00;99.90;;;;;;4945170;29;20439;-79
2023/10/15 13:55:00;;;;;;;1.83;1.43;;;14.00;99.90;;;;;;4945325;29;20465;-80
2023/10/15 13:57:35;;;;;;;2.13;1.57;;;14.30;99.90;;;;;;4945592;29;20561;-79
2023/10/15 14:00:21;;;;;;;1.40;0.93;;;14.90;99.90;;;;;;4947908;29;20462;-82
2023/10/15 14:03:05;;;;;;;1.40;1.30;;;15.10;99.90;;;;;;4947078;29;20439;-80
2023/10/15 14:05:38;;;;;;;1.73;1.20;;;15.30;99.90;;;;;;4947548;29;20461;-80
2023/10/15 14:08:25;;;;;;;2.17;1.40;;;15.00;99.90;;;;;;4941449;29;20479;-81
2023/10/15 14:13:58;;;;;;;2.00;1.40;;;15.30;99.90;;;;;;4919936;29;20459;-81
2023/10/15 14:16:29;;;;;;;2.77;1.30;;;15.30;99.90;;;;;;4947131;29;20486;-82
2023/10/15 14:19:02;;;;;;;1.47;1.37;;;15.10;99.90;;;;;;4943254;29;20459;-80
2023/10/15 14:21:30;;;;;;;4.00;1.50;;;15.20;99.90;;;;;;4943772;29;20443;-83
2023/10/15 14:23:58;;;;;;;2.43;1.33;;;15.10;99.90;;;;;;4941982;29;20539;-79
2023/10/15 14:26:28;;;;;;;1.77;1.10;;;15.10;99.90;;;;;;4943743;29;20498;-79
2023/10/15 14:28:56;;;;;;;5.53;1.60;;;14.80;99.90;;;;;;4943708;29;20546;-79